Carmine, Texas
Current Conditions -  °F | °C
As of 10:35 AM on Friday 24 Oct 2014 (Local Time) from KGYB Reporting Station
Clear Clear  
Wind Chill: 70°   Ceiling: Unl
Heat Index: 70°   Visibility: 10mi
Dew Point: 56°   Wind: 0mph
Humidity: 61%   Direction: NA
Pressure: 30.23"   Gusts: NA
Location:  30.15°N, 96.69°W
Report Text: KGYB 241535Z AUTO 00000KT 10SM CLR 21/13 A3023 RMK AO2 T02110133
Loading
Personal Weather Stations






























Interactive Weather Map
Tropical Storm Tracking
New forecast layout! Learn more

10-Day Weather Forecast

Advertisements
Track Severe Weather on mobile